sensor_id;sensor_type;location;lat;lon;timestamp;P1;durP1;ratioP1;P2;durP2;ratioP2
51616;SDS011;37697;52.588;13.394;2022-07-30T00:04:47;5.35;;;1.67;;
51616;SDS011;37697;52.588;13.394;2022-07-30T00:09:48;5.87;;;1.77;;
51616;SDS011;37697;52.588;13.394;2022-07-30T00:14:49;4.75;;;1.50;;
51616;SDS011;37697;52.588;13.394;2022-07-30T00:19:49;3.62;;;1.40;;
51616;SDS011;37697;52.588;13.394;2022-07-30T00:24:50;5.33;;;2.35;;
51616;SDS011;37697;52.588;13.394;2022-07-30T00:29:51;3.67;;;1.45;;
51616;SDS011;37697;52.588;13.394;2022-07-30T00:34:52;4.03;;;1.83;;
51616;SDS011;37697;52.588;13.394;2022-07-30T00:39:53;2.98;;;1.70;;
51616;SDS011;37697;52.588;13.394;2022-07-30T00:44:53;3.45;;;1.57;;
51616;SDS011;37697;52.588;13.394;2022-07-30T00:49:54;7.58;;;1.67;;
51616;SDS011;37697;52.588;13.394;2022-07-30T00:54:55;4.85;;;1.90;;
51616;SDS011;37697;52.588;13.394;2022-07-30T00:59:55;4.10;;;1.57;;
51616;SDS011;37697;52.588;13.394;2022-07-30T01:04:57;4.95;;;1.50;;
51616;SDS011;37697;52.588;13.394;2022-07-30T01:09:57;3.67;;;1.57;;
51616;SDS011;37697;52.588;13.394;2022-07-30T01:14:59;3.25;;;1.52;;
51616;SDS011;37697;52.588;13.394;2022-07-30T01:20:05;3.17;;;1.70;;
51616;SDS011;37697;52.588;13.394;2022-07-30T01:25:15;5.10;;;1.50;;
51616;SDS011;37697;52.588;13.394;2022-07-30T01:30:29;7.67;;;2.10;;
51616;SDS011;37697;52.588;13.394;2022-07-30T01:35:33;6.22;;;2.10;;
51616;SDS011;37697;52.588;13.394;2022-07-30T01:40:34;3.75;;;1.80;;
51616;SDS011;37697;52.588;13.394;2022-07-30T01:45:37;2.67;;;1.47;;
51616;SDS011;37697;52.588;13.394;2022-07-30T01:50:41;8.75;;;1.77;;
51616;SDS011;37697;52.588;13.394;2022-07-30T01:55:45;4.90;;;1.77;;
51616;SDS011;37697;52.588;13.394;2022-07-30T02:00:48;6.17;;;1.70;;
51616;SDS011;37697;52.588;13.394;2022-07-30T02:05:55;5.35;;;1.67;;
51616;SDS011;37697;52.588;13.394;2022-07-30T02:11:03;4.72;;;1.55;;
51616;SDS011;37697;52.588;13.394;2022-07-30T02:16:26;6.42;;;1.80;;
51616;SDS011;37697;52.588;13.394;2022-07-30T02:21:36;4.80;;;1.65;;
51616;SDS011;37697;52.588;13.394;2022-07-30T02:26:37;4.12;;;1.70;;
51616;SDS011;37697;52.588;13.394;2022-07-30T02:31:40;5.28;;;1.62;;
51616;SDS011;37697;52.588;13.394;2022-07-30T02:36:41;3.60;;;1.52;;
51616;SDS011;37697;52.588;13.394;2022-07-30T02:41:45;2.52;;;1.45;;
51616;SDS011;37697;52.588;13.394;2022-07-30T02:46:47;5.30;;;1.92;;
51616;SDS011;37697;52.588;13.394;2022-07-30T02:51:50;3.20;;;1.42;;
51616;SDS011;37697;52.588;13.394;2022-07-30T02:56:51;4.37;;;1.52;;
51616;SDS011;37697;52.588;13.394;2022-07-30T03:01:56;3.35;;;1.45;;
51616;SDS011;37697;52.588;13.394;2022-07-30T03:06:58;5.03;;;1.67;;
51616;SDS011;37697;52.588;13.394;2022-07-30T03:12:00;7.17;;;1.42;;
51616;SDS011;37697;52.588;13.394;2022-07-30T03:17:02;3.37;;;1.50;;
51616;SDS011;37697;52.588;13.394;2022-07-30T03:22:05;2.65;;;1.40;;
51616;SDS011;37697;52.588;13.394;2022-07-30T03:27:08;4.42;;;1.37;;
51616;SDS011;37697;52.588;13.394;2022-07-30T03:32:10;4.17;;;1.37;;
51616;SDS011;37697;52.588;13.394;2022-07-30T03:37:12;3.95;;;1.37;;
51616;SDS011;37697;52.588;13.394;2022-07-30T03:42:13;4.72;;;1.30;;
51616;SDS011;37697;52.588;13.394;2022-07-30T03:47:15;5.12;;;1.52;;
51616;SDS011;37697;52.588;13.394;2022-07-30T03:52:18;2.67;;;1.20;;
51616;SDS011;37697;52.588;13.394;2022-07-30T03:57:20;4.53;;;1.60;;
51616;SDS011;37697;52.588;13.394;2022-07-30T04:02:20;1.77;;;1.13;;
51616;SDS011;37697;52.588;13.394;2022-07-30T04:07:21;3.50;;;1.30;;
51616;SDS011;37697;52.588;13.394;2022-07-30T04:12:22;2.17;;;1.30;;
51616;SDS011;37697;52.588;13.394;2022-07-30T04:17:24;3.45;;;1.70;;
51616;SDS011;37697;52.588;13.394;2022-07-30T04:22:37;5.72;;;1.80;;
51616;SDS011;37697;52.588;13.394;2022-07-30T04:27:40;2.87;;;1.52;;
51616;SDS011;37697;52.588;13.394;2022-07-30T04:32:41;2.70;;;1.32;;
51616;SDS011;37697;52.588;13.394;2022-07-30T04:37:42;3.20;;;1.55;;
51616;SDS011;37697;52.588;13.394;2022-07-30T04:42:43;3.47;;;1.65;;
51616;SDS011;37697;52.588;13.394;2022-07-30T04:47:43;3.25;;;1.30;;
51616;SDS011;37697;52.588;13.394;2022-07-30T04:57:45;4.10;;;1.42;;
51616;SDS011;37697;52.588;13.394;2022-07-30T05:02:48;2.87;;;1.42;;
51616;SDS011;37697;52.588;13.394;2022-07-30T05:07:51;4.10;;;1.50;;
51616;SDS011;37697;52.588;13.394;2022-07-30T05:12:52;4.37;;;1.62;;
51616;SDS011;37697;52.588;13.394;2022-07-30T05:17:52;4.20;;;1.55;;
51616;SDS011;37697;52.588;13.394;2022-07-30T05:27:54;2.37;;;1.47;;
51616;SDS011;37697;52.588;13.394;2022-07-30T05:32:56;4.15;;;1.55;;
51616;SDS011;37697;52.588;13.394;2022-07-30T05:37:57;2.93;;;1.53;;
51616;SDS011;37697;52.588;13.394;2022-07-30T05:42:59;4.25;;;1.30;;
51616;SDS011;37697;52.588;13.394;2022-07-30T05:48:00;3.27;;;1.50;;
51616;SDS011;37697;52.588;13.394;2022-07-30T06:08:04;3.83;;;1.40;;
51616;SDS011;37697;52.588;13.394;2022-07-30T06:13:04;5.30;;;1.50;;
51616;SDS011;37697;52.588;13.394;2022-07-30T06:18:05;3.47;;;1.40;;
51616;SDS011;37697;52.588;13.394;2022-07-30T06:23:06;3.92;;;1.35;;
51616;SDS011;37697;52.588;13.394;2022-07-30T06:28:07;4.40;;;1.30;;
51616;SDS011;37697;52.588;13.394;2022-07-30T06:33:07;5.08;;;1.40;;
51616;SDS011;37697;52.588;13.394;2022-07-30T06:38:08;3.60;;;1.35;;
51616;SDS011;37697;52.588;13.394;2022-07-30T06:43:09;2.58;;;1.15;;
51616;SDS011;37697;52.588;13.394;2022-07-30T06:48:09;2.08;;;1.22;;
51616;SDS011;37697;52.588;13.394;2022-07-30T06:53:10;3.62;;;1.07;;
51616;SDS011;37697;52.588;13.394;2022-07-30T06:58:11;2.97;;;1.23;;
51616;SDS011;37697;52.588;13.394;2022-07-30T07:08:12;6.93;;;1.67;;
51616;SDS011;37697;52.588;13.394;2022-07-30T07:13:13;3.40;;;1.10;;
51616;SDS011;37697;52.588;13.394;2022-07-30T07:18:14;3.55;;;1.20;;
51616;SDS011;37697;52.588;13.394;2022-07-30T07:23:15;5.42;;;1.35;;
51616;SDS011;37697;52.588;13.394;2022-07-30T07:33:16;4.77;;;1.10;;
51616;SDS011;37697;52.588;13.394;2022-07-30T07:38:17;2.87;;;1.20;;
51616;SDS011;37697;52.588;13.394;2022-07-30T07:43:17;5.90;;;1.75;;
51616;SDS011;37697;52.588;13.394;2022-07-30T07:48:19;15.03;;;2.02;;
51616;SDS011;37697;52.588;13.394;2022-07-30T07:53:20;3.95;;;1.10;;
51616;SDS011;37697;52.588;13.394;2022-07-30T08:03:21;2.17;;;1.10;;
51616;SDS011;37697;52.588;13.394;2022-07-30T08:08:22;2.00;;;1.10;;
51616;SDS011;37697;52.588;13.394;2022-07-30T08:13:23;5.35;;;1.17;;
51616;SDS011;37697;52.588;13.394;2022-07-30T08:23:25;5.90;;;1.70;;
51616;SDS011;37697;52.588;13.394;2022-07-30T08:28:25;3.33;;;1.15;;
51616;SDS011;37697;52.588;13.394;2022-07-30T08:38:27;7.10;;;1.30;;
51616;SDS011;37697;52.588;13.394;2022-07-30T08:43:27;2.85;;;1.10;;
51616;SDS011;37697;52.588;13.394;2022-07-30T08:48:28;3.80;;;1.23;;
51616;SDS011;37697;52.588;13.394;2022-07-30T08:53:30;3.87;;;1.30;;
51616;SDS011;37697;52.588;13.394;2022-07-30T08:58:33;3.10;;;1.32;;
51616;SDS011;37697;52.588;13.394;2022-07-30T09:03:36;3.12;;;1.17;;
51616;SDS011;37697;52.588;13.394;2022-07-30T09:08:39;1.77;;;1.10;;
51616;SDS011;37697;52.588;13.394;2022-07-30T09:13:41;2.83;;;1.40;;
51616;SDS011;37697;52.588;13.394;2022-07-30T09:18:43;3.27;;;1.40;;
51616;SDS011;37697;52.588;13.394;2022-07-30T09:23:54;4.58;;;1.30;;
51616;SDS011;37697;52.588;13.394;2022-07-30T09:29:16;3.58;;;1.30;;
51616;SDS011;37697;52.588;13.394;2022-07-30T09:34:24;4.40;;;1.37;;
51616;SDS011;37697;52.588;13.394;2022-07-30T09:39:33;3.37;;;1.10;;
51616;SDS011;37697;52.588;13.394;2022-07-30T09:44:38;2.52;;;1.20;;
51616;SDS011;37697;52.588;13.394;2022-07-30T09:49:39;3.62;;;1.40;;
51616;SDS011;37697;52.588;13.394;2022-07-30T09:54:45;3.00;;;1.30;;
51616;SDS011;37697;52.588;13.394;2022-07-30T09:59:50;3.08;;;1.20;;
51616;SDS011;37697;52.588;13.394;2022-07-30T10:04:53;3.75;;;1.35;;
51616;SDS011;37697;52.588;13.394;2022-07-30T10:09:59;2.12;;;1.32;;
51616;SDS011;37697;52.588;13.394;2022-07-30T10:15:00;4.20;;;1.20;;
51616;SDS011;37697;52.588;13.394;2022-07-30T10:20:08;3.00;;;1.30;;
51616;SDS011;37697;52.588;13.394;2022-07-30T10:25:09;3.10;;;1.10;;
51616;SDS011;37697;52.588;13.394;2022-07-30T10:30:11;3.15;;;1.30;;
51616;SDS011;37697;52.588;13.394;2022-07-30T10:35:12;3.83;;;1.17;;
51616;SDS011;37697;52.588;13.394;2022-07-30T10:40:19;3.75;;;1.05;;
51616;SDS011;37697;52.588;13.394;2022-07-30T10:51:02;3.85;;;1.17;;
51616;SDS011;37697;52.588;13.394;2022-07-30T10:56:17;4.33;;;1.30;;
51616;SDS011;37697;52.588;13.394;2022-07-30T11:01:20;1.37;;;0.90;;
51616;SDS011;37697;52.588;13.394;2022-07-30T11:21:44;3.95;;;1.27;;
51616;SDS011;37697;52.588;13.394;2022-07-30T11:26:47;5.15;;;1.50;;
51616;SDS011;37697;52.588;13.394;2022-07-30T11:31:50;2.25;;;0.88;;
51616;SDS011;37697;52.588;13.394;2022-07-30T11:37:01;3.85;;;0.80;;
51616;SDS011;37697;52.588;13.394;2022-07-30T11:47:29;2.20;;;1.05;;
51616;SDS011;37697;52.588;13.394;2022-07-30T11:52:31;5.47;;;1.00;;
51616;SDS011;37697;52.588;13.394;2022-07-30T11:57:39;2.02;;;0.90;;
51616;SDS011;37697;52.588;13.394;2022-07-30T12:02:41;4.92;;;1.17;;
51616;SDS011;37697;52.588;13.394;2022-07-30T12:07:42;1.63;;;1.00;;
51616;SDS011;37697;52.588;13.394;2022-07-30T12:12:44;4.45;;;0.88;;
51616;SDS011;37697;52.588;13.394;2022-07-30T12:17:46;4.37;;;1.00;;
51616;SDS011;37697;52.588;13.394;2022-07-30T12:22:46;2.77;;;0.90;;
51616;SDS011;37697;52.588;13.394;2022-07-30T12:27:48;2.25;;;1.20;;
51616;SDS011;37697;52.588;13.394;2022-07-30T12:32:49;2.30;;;1.27;;
51616;SDS011;37697;52.588;13.394;2022-07-30T12:38:00;3.60;;;1.10;;
51616;SDS011;37697;52.588;13.394;2022-07-30T12:43:03;3.58;;;1.20;;
51616;SDS011;37697;52.588;13.394;2022-07-30T12:48:08;3.87;;;1.07;;
51616;SDS011;37697;52.588;13.394;2022-07-30T12:53:11;2.42;;;0.98;;
51616;SDS011;37697;52.588;13.394;2022-07-30T12:58:12;2.40;;;1.00;;
51616;SDS011;37697;52.588;13.394;2022-07-30T13:13:52;1.80;;;0.90;;
51616;SDS011;37697;52.588;13.394;2022-07-30T13:18:53;2.02;;;0.70;;
51616;SDS011;37697;52.588;13.394;2022-07-30T13:23:54;3.65;;;1.00;;
51616;SDS011;37697;52.588;13.394;2022-07-30T13:28:55;2.80;;;1.10;;
51616;SDS011;37697;52.588;13.394;2022-07-30T13:33:57;1.62;;;0.93;;
51616;SDS011;37697;52.588;13.394;2022-07-30T13:38:57;2.47;;;0.90;;
51616;SDS011;37697;52.588;13.394;2022-07-30T13:43:58;3.98;;;1.02;;
51616;SDS011;37697;52.588;13.394;2022-07-30T13:48:59;5.70;;;1.20;;
51616;SDS011;37697;52.588;13.394;2022-07-30T13:53:59;4.92;;;1.30;;
51616;SDS011;37697;52.588;13.394;2022-07-30T13:59:00;4.78;;;1.10;;
51616;SDS011;37697;52.588;13.394;2022-07-30T14:04:03;1.95;;;0.93;;
51616;SDS011;37697;52.588;13.394;2022-07-30T14:09:05;2.35;;;1.20;;
51616;SDS011;37697;52.588;13.394;2022-07-30T14:14:07;4.97;;;1.07;;
51616;SDS011;37697;52.588;13.394;2022-07-30T14:19:09;4.22;;;0.90;;
51616;SDS011;37697;52.588;13.394;2022-07-30T14:24:10;2.10;;;1.00;;
51616;SDS011;37697;52.588;13.394;2022-07-30T14:29:12;2.05;;;1.00;;
51616;SDS011;37697;52.588;13.394;2022-07-30T14:34:13;3.80;;;1.00;;
51616;SDS011;37697;52.588;13.394;2022-07-30T14:39:13;2.12;;;0.85;;
51616;SDS011;37697;52.588;13.394;2022-07-30T14:44:14;2.98;;;1.00;;
51616;SDS011;37697;52.588;13.394;2022-07-30T14:49:15;2.17;;;0.78;;
51616;SDS011;37697;52.588;13.394;2022-07-30T14:54:15;3.37;;;0.90;;
51616;SDS011;37697;52.588;13.394;2022-07-30T14:59:16;1.95;;;0.90;;
51616;SDS011;37697;52.588;13.394;2022-07-30T15:04:17;3.50;;;1.10;;
51616;SDS011;37697;52.588;13.394;2022-07-30T15:09:18;4.13;;;1.20;;
51616;SDS011;37697;52.588;13.394;2022-07-30T15:14:21;4.30;;;1.10;;
51616;SDS011;37697;52.588;13.394;2022-07-30T15:19:22;4.65;;;1.10;;
51616;SDS011;37697;52.588;13.394;2022-07-30T15:24:23;4.37;;;0.98;;
51616;SDS011;37697;52.588;13.394;2022-07-30T15:29:24;2.08;;;1.15;;
51616;SDS011;37697;52.588;13.394;2022-07-30T15:34:27;3.42;;;0.88;;
51616;SDS011;37697;52.588;13.394;2022-07-30T15:39:30;4.58;;;1.20;;
51616;SDS011;37697;52.588;13.394;2022-07-30T15:44:32;0.85;;;0.80;;
51616;SDS011;37697;52.588;13.394;2022-07-30T15:54:34;2.10;;;1.20;;
51616;SDS011;37697;52.588;13.394;2022-07-30T15:59:35;4.53;;;1.20;;
51616;SDS011;37697;52.588;13.394;2022-07-30T16:04:36;1.87;;;1.00;;
51616;SDS011;37697;52.588;13.394;2022-07-30T16:09:37;2.20;;;1.10;;
51616;SDS011;37697;52.588;13.394;2022-07-30T16:14:37;3.83;;;1.10;;
51616;SDS011;37697;52.588;13.394;2022-07-30T16:19:39;3.72;;;1.02;;
51616;SDS011;37697;52.588;13.394;2022-07-30T16:24:40;2.90;;;1.12;;
51616;SDS011;37697;52.588;13.394;2022-07-30T16:29:41;3.40;;;1.25;;
51616;SDS011;37697;52.588;13.394;2022-07-30T16:34:42;5.10;;;1.00;;
51616;SDS011;37697;52.588;13.394;2022-07-30T16:39:43;5.22;;;1.17;;
51616;SDS011;37697;52.588;13.394;2022-07-30T16:44:43;2.12;;;1.25;;
51616;SDS011;37697;52.588;13.394;2022-07-30T16:49:44;3.92;;;1.47;;
51616;SDS011;37697;52.588;13.394;2022-07-30T16:54:45;4.50;;;1.07;;
51616;SDS011;37697;52.588;13.394;2022-07-30T16:59:45;7.10;;;1.10;;
51616;SDS011;37697;52.588;13.394;2022-07-30T17:04:46;1.57;;;1.10;;
51616;SDS011;37697;52.588;13.394;2022-07-30T17:09:47;3.75;;;1.12;;
51616;SDS011;37697;52.588;13.394;2022-07-30T17:14:48;3.60;;;1.22;;
51616;SDS011;37697;52.588;13.394;2022-07-30T17:19:49;2.85;;;1.00;;
51616;SDS011;37697;52.588;13.394;2022-07-30T17:24:49;3.35;;;1.00;;
51616;SDS011;37697;52.588;13.394;2022-07-30T17:29:50;4.67;;;1.20;;
51616;SDS011;37697;52.588;13.394;2022-07-30T17:34:52;3.27;;;1.10;;
51616;SDS011;37697;52.588;13.394;2022-07-30T17:39:54;4.07;;;1.20;;
51616;SDS011;37697;52.588;13.394;2022-07-30T17:44:56;2.58;;;1.00;;
51616;SDS011;37697;52.588;13.394;2022-07-30T17:49:58;3.12;;;1.05;;
51616;SDS011;37697;52.588;13.394;2022-07-30T17:54:59;3.83;;;1.30;;
51616;SDS011;37697;52.588;13.394;2022-07-30T18:00:04;3.77;;;1.20;;
51616;SDS011;37697;52.588;13.394;2022-07-30T18:05:10;13.18;;;1.50;;
51616;SDS011;37697;52.588;13.394;2022-07-30T18:10:12;3.33;;;1.35;;
51616;SDS011;37697;52.588;13.394;2022-07-30T18:15:13;2.50;;;1.27;;
51616;SDS011;37697;52.588;13.394;2022-07-30T18:20:15;1.40;;;0.90;;
51616;SDS011;37697;52.588;13.394;2022-07-30T18:25:15;3.85;;;1.20;;
51616;SDS011;37697;52.588;13.394;2022-07-30T18:30:16;4.97;;;1.60;;
51616;SDS011;37697;52.588;13.394;2022-07-30T18:35:17;2.85;;;1.62;;
51616;SDS011;37697;52.588;13.394;2022-07-30T18:40:17;2.55;;;1.40;;
51616;SDS011;37697;52.588;13.394;2022-07-30T18:45:19;4.37;;;1.50;;
51616;SDS011;37697;52.588;13.394;2022-07-30T18:50:20;4.15;;;1.42;;
51616;SDS011;37697;52.588;13.394;2022-07-30T18:55:22;4.35;;;1.60;;
51616;SDS011;37697;52.588;13.394;2022-07-30T19:00:23;2.98;;;1.57;;
51616;SDS011;37697;52.588;13.394;2022-07-30T19:05:25;2.35;;;1.30;;
51616;SDS011;37697;52.588;13.394;2022-07-30T19:10:26;3.42;;;1.52;;
51616;SDS011;37697;52.588;13.394;2022-07-30T19:20:28;3.42;;;1.50;;
51616;SDS011;37697;52.588;13.394;2022-07-30T19:25:30;4.03;;;1.62;;
51616;SDS011;37697;52.588;13.394;2022-07-30T19:30:32;3.05;;;1.90;;
51616;SDS011;37697;52.588;13.394;2022-07-30T19:35:34;2.20;;;1.35;;
51616;SDS011;37697;52.588;13.394;2022-07-30T19:40:35;2.95;;;1.42;;
51616;SDS011;37697;52.588;13.394;2022-07-30T19:45:36;3.77;;;1.57;;
51616;SDS011;37697;52.588;13.394;2022-07-30T19:50:37;3.58;;;1.52;;
51616;SDS011;37697;52.588;13.394;2022-07-30T19:55:39;3.37;;;1.57;;
51616;SDS011;37697;52.588;13.394;2022-07-30T20:00:39;2.90;;;1.57;;
51616;SDS011;37697;52.588;13.394;2022-07-30T20:05:40;3.47;;;1.87;;
51616;SDS011;37697;52.588;13.394;2022-07-30T20:10:41;3.25;;;1.82;;
51616;SDS011;37697;52.588;13.394;2022-07-30T20:15:42;4.92;;;2.05;;
51616;SDS011;37697;52.588;13.394;2022-07-30T20:20:43;4.45;;;2.40;;
51616;SDS011;37697;52.588;13.394;2022-07-30T20:25:43;4.40;;;2.10;;
51616;SDS011;37697;52.588;13.394;2022-07-30T20:30:44;3.47;;;2.10;;
51616;SDS011;37697;52.588;13.394;2022-07-30T20:35:45;4.90;;;2.22;;
51616;SDS011;37697;52.588;13.394;2022-07-30T20:40:46;3.75;;;2.50;;
51616;SDS011;37697;52.588;13.394;2022-07-30T20:45:47;6.35;;;2.60;;
51616;SDS011;37697;52.588;13.394;2022-07-30T20:50:47;4.67;;;2.37;;
51616;SDS011;37697;52.588;13.394;2022-07-30T20:55:48;4.87;;;2.22;;
51616;SDS011;37697;52.588;13.394;2022-07-30T21:00:49;3.60;;;2.67;;
51616;SDS011;37697;52.588;13.394;2022-07-30T21:05:50;4.60;;;2.40;;
51616;SDS011;37697;52.588;13.394;2022-07-30T21:10:51;5.67;;;2.55;;
51616;SDS011;37697;52.588;13.394;2022-07-30T21:15:52;6.28;;;2.60;;
51616;SDS011;37697;52.588;13.394;2022-07-30T21:20:55;7.28;;;2.87;;
51616;SDS011;37697;52.588;13.394;2022-07-30T21:25:55;4.35;;;3.00;;
51616;SDS011;37697;52.588;13.394;2022-07-30T21:30:56;4.97;;;3.35;;
51616;SDS011;37697;52.588;13.394;2022-07-30T21:35:59;5.78;;;3.30;;
51616;SDS011;37697;52.588;13.394;2022-07-30T21:41:01;6.08;;;4.10;;
51616;SDS011;37697;52.588;13.394;2022-07-30T21:46:02;5.10;;;3.90;;
51616;SDS011;37697;52.588;13.394;2022-07-30T21:51:04;5.85;;;3.95;;
51616;SDS011;37697;52.588;13.394;2022-07-30T21:56:04;6.45;;;4.53;;
51616;SDS011;37697;52.588;13.394;2022-07-30T22:01:06;6.12;;;4.67;;
51616;SDS011;37697;52.588;13.394;2022-07-30T22:06:09;7.03;;;4.72;;
51616;SDS011;37697;52.588;13.394;2022-07-30T22:11:10;11.40;;;5.40;;
51616;SDS011;37697;52.588;13.394;2022-07-30T22:16:12;9.53;;;5.22;;
51616;SDS011;37697;52.588;13.394;2022-07-30T22:21:14;8.33;;;5.03;;
51616;SDS011;37697;52.588;13.394;2022-07-30T22:26:15;7.80;;;4.78;;
51616;SDS011;37697;52.588;13.394;2022-07-30T22:31:16;7.30;;;4.83;;
51616;SDS011;37697;52.588;13.394;2022-07-30T22:36:17;8.85;;;5.20;;
51616;SDS011;37697;52.588;13.394;2022-07-30T22:41:18;7.00;;;4.67;;
51616;SDS011;37697;52.588;13.394;2022-07-30T22:51:19;7.17;;;4.63;;
51616;SDS011;37697;52.588;13.394;2022-07-30T22:56:20;7.08;;;4.47;;
51616;SDS011;37697;52.588;13.394;2022-07-30T23:01:22;7.03;;;4.30;;
51616;SDS011;37697;52.588;13.394;2022-07-30T23:11:24;6.28;;;4.22;;
51616;SDS011;37697;52.588;13.394;2022-07-30T23:16:25;7.50;;;4.70;;
51616;SDS011;37697;52.588;13.394;2022-07-30T23:21:26;8.40;;;4.33;;
51616;SDS011;37697;52.588;13.394;2022-07-30T23:26:27;6.37;;;4.25;;
51616;SDS011;37697;52.588;13.394;2022-07-30T23:36:28;7.90;;;4.28;;
51616;SDS011;37697;52.588;13.394;2022-07-30T23:41:29;6.60;;;3.92;;
51616;SDS011;37697;52.588;13.394;2022-07-30T23:51:30;5.90;;;3.85;;
51616;SDS011;37697;52.588;13.394;2022-07-30T23:56:30;7.50;;;4.30;;
